Pinehill, New Mexico
Current Conditions -  °F | °C
As of 8:28 AM on Thursday 18 Dec 2014 (Local Time) from KGUP Reporting Station
Broken Clouds Broken Clouds  
Wind Chill: 33°   Ceiling: 2600
Heat Index: 33°   Visibility: 10mi
Dew Point: 27°   Wind: 0mph
Humidity: 78%   Direction: NA
Pressure: 30.14"   Gusts: NA
Location:  35.13°N, 108.5°W
Report Text: KGUP 181528Z AUTO 00000KT 10SM BKN026 01/M03 A3014 RMK AO2 T00061028
Loading
Personal Weather Stations






























Interactive Weather Map New forecast layout! Learn more

10-Day Weather Forecast

Advertisements
Track Severe Weather on mobile